createdAt,value
2018-07-08T00:00:59.497Z,67.10
2018-07-08T00:01:59.425Z,67.77
2018-07-08T00:02:59.379Z,68.06
2018-07-08T00:03:59.285Z,68.73
2018-07-08T00:04:59.214Z,68.73
2018-07-08T00:05:59.143Z,68.83
2018-07-08T00:06:59.074Z,68.35
2018-07-08T00:07:59.006Z,68.92
2018-07-08T00:08:58.937Z,69.12
2018-07-08T00:09:58.864Z,68.54
2018-07-08T00:10:58.798Z,68.83
2018-07-08T00:11:58.720Z,69.02
2018-07-08T00:12:58.658Z,68.92
2018-07-08T00:13:58.579Z,70.17
2018-07-08T00:14:58.515Z,70.17
2018-07-08T00:15:58.445Z,70.94
2018-07-08T00:16:58.378Z,69.98
2018-07-08T00:17:58.301Z,69.12
2018-07-08T00:18:58.234Z,69.02
2018-07-08T00:19:58.163Z,68.83
2018-07-08T00:20:58.092Z,68.63
2018-07-08T00:21:58.020Z,68.79
2018-07-08T00:22:57.951Z,69.79
2018-07-08T00:23:57.879Z,69.85
2018-07-08T00:24:57.812Z,70.33
2018-07-08T00:25:57.739Z,71.00
2018-07-08T00:26:57.668Z,71.67
2018-07-08T00:27:57.599Z,71.48
2018-07-08T00:28:57.539Z,72.25
2018-07-08T00:29:57.458Z,72.06
2018-07-08T00:30:57.389Z,71.48
2018-07-08T00:31:57.318Z,71.29
2018-07-08T00:32:57.246Z,71.29
2018-07-08T00:33:57.173Z,71.67
2018-07-08T00:34:57.105Z,72.16
2018-07-08T00:35:57.035Z,71.29
2018-07-08T00:36:56.964Z,71.48
2018-07-08T00:37:56.893Z,71.58
2018-07-08T00:38:56.827Z,72.06
2018-07-08T00:39:56.804Z,74.08
2018-07-08T00:40:56.685Z,74.17
2018-07-08T00:41:56.613Z,73.60
2018-07-08T00:42:56.544Z,72.92
2018-07-08T00:43:56.472Z,73.41
2018-07-08T00:44:56.404Z,73.79
2018-07-08T00:45:56.332Z,75.00
2018-07-08T00:46:56.261Z,74.62
2018-07-08T00:47:56.200Z,75.52
2018-07-08T00:48:56.126Z,75.00
2018-07-08T00:49:56.048Z,74.13
2018-07-08T00:50:55.984Z,74.90
2018-07-08T00:51:55.912Z,74.43
2018-07-08T00:52:55.851Z,75.00
2018-07-08T00:53:55.769Z,75.87
2018-07-08T00:54:55.700Z,75.57
2018-07-08T00:55:55.626Z,74.90
2018-07-08T00:56:55.562Z,75.10
2018-07-08T00:57:55.484Z,75.20
2018-07-08T00:58:55.416Z,74.81
2018-07-08T00:59:55.352Z,74.62
2018-07-08T01:00:55.276Z,75.10
2018-07-08T01:01:55.205Z,75.48
2018-07-08T01:02:55.133Z,75.20
2018-07-08T01:03:55.063Z,74.33
2018-07-08T01:04:54.989Z,75.00
2018-07-08T01:05:54.927Z,75.10
2018-07-08T01:06:54.848Z,75.00
2018-07-08T01:07:54.780Z,75.48
2018-07-08T01:08:54.706Z,75.20
2018-07-08T01:09:54.640Z,76.06
2018-07-08T01:10:54.570Z,75.87
2018-07-08T01:11:54.498Z,75.67
2018-07-08T01:12:54.425Z,75.25
2018-07-08T01:13:54.359Z,75.63
2018-07-08T01:14:54.282Z,75.63
2018-07-08T01:15:54.213Z,76.12
2018-07-08T01:16:54.145Z,75.54
2018-07-08T01:17:54.075Z,76.12
2018-07-08T01:18:54.000Z,75.73
2018-07-08T01:19:53.931Z,75.82
2018-07-08T01:20:53.858Z,75.54
2018-07-08T01:21:53.791Z,75.73
2018-07-08T01:22:53.719Z,76.21
2018-07-08T01:23:53.643Z,76.40
2018-07-08T01:24:53.577Z,77.26
2018-07-08T01:25:53.506Z,76.21
2018-07-08T01:26:53.434Z,76.50
2018-07-08T01:27:53.366Z,76.31
2018-07-08T01:28:53.295Z,76.31
2018-07-08T01:29:53.225Z,76.31
2018-07-08T01:30:53.151Z,76.69
2018-07-08T01:31:53.083Z,76.98
2018-07-08T01:32:53.009Z,77.56
2018-07-08T01:33:52.938Z,77.56
2018-07-08T01:34:52.869Z,78.80
2018-07-08T01:35:52.796Z,78.52
2018-07-08T01:36:52.726Z,79.28
2018-07-08T01:37:52.655Z,78.32
2018-07-08T01:38:52.583Z,76.88
2018-07-08T01:39:52.514Z,76.98
2018-07-08T01:40:52.442Z,76.79
2018-07-08T01:41:52.369Z,76.88
2018-07-08T01:42:52.303Z,77.84
2018-07-08T01:43:52.233Z,77.08
2018-07-08T01:44:52.158Z,76.98
2018-07-08T01:45:52.088Z,77.75
2018-07-08T01:46:52.018Z,77.84
2018-07-08T01:47:51.944Z,78.80
2018-07-08T01:48:51.876Z,78.42
2018-07-08T01:49:51.807Z,78.61
2018-07-08T01:50:51.732Z,78.03
2018-07-08T01:51:51.658Z,77.84
2018-07-08T01:52:51.588Z,78.13
2018-07-08T01:53:51.522Z,78.23
2018-07-08T01:54:51.449Z,77.42
2018-07-08T01:55:51.381Z,78.47
2018-07-08T01:56:51.305Z,78.57
2018-07-08T01:57:51.236Z,77.80
2018-07-08T01:58:51.163Z,77.42
2018-07-08T01:59:51.091Z,77.80
2018-07-08T02:00:51.016Z,78.47
2018-07-08T02:01:50.958Z,78.67
2018-07-08T02:02:50.880Z,79.05
2018-07-08T02:03:50.812Z,78.77
2018-07-08T02:04:50.736Z,79.05
2018-07-08T02:05:50.667Z,80.58
2018-07-08T02:06:50.596Z,80.78
2018-07-08T02:07:50.521Z,80.87
2018-07-08T02:08:50.453Z,80.87
2018-07-08T02:09:50.380Z,80.11
2018-07-08T02:10:50.312Z,80.30
2018-07-08T02:11:50.239Z,79.72
2018-07-08T02:12:50.171Z,81.16
2018-07-08T02:13:50.099Z,80.97
2018-07-08T02:14:50.028Z,81.74
2018-07-08T02:15:49.956Z,82.41
2018-07-08T02:16:49.885Z,82.18
2018-07-08T02:17:49.814Z,81.60
2018-07-08T02:18:49.743Z,82.37
2018-07-08T02:19:49.670Z,82.37
2018-07-08T02:20:49.596Z,84.67
2018-07-08T02:21:49.525Z,84.19
2018-07-08T02:22:49.454Z,82.94
2018-07-08T02:23:49.383Z,82.75
2018-07-08T02:24:49.323Z,82.94
2018-07-08T02:25:49.240Z,84.28
2018-07-08T02:26:49.167Z,84.00
2018-07-08T02:27:49.098Z,84.67
2018-07-08T02:28:49.030Z,83.42
2018-07-08T02:29:48.956Z,82.94
2018-07-08T02:30:48.884Z,84.48
2018-07-08T02:31:48.814Z,84.77
2018-07-08T02:32:48.740Z,85.82
2018-07-08T02:33:48.672Z,86.49
2018-07-08T02:34:48.599Z,86.01
2018-07-08T02:35:48.534Z,85.34
2018-07-08T02:36:48.455Z,85.44
2018-07-08T02:37:48.385Z,84.28
2018-07-08T02:38:48.311Z,83.81
2018-07-08T02:39:48.241Z,83.81
2018-07-08T02:40:48.169Z,85.05
2018-07-08T02:41:48.097Z,85.05
2018-07-08T02:42:48.026Z,85.63
2018-07-08T02:43:47.956Z,85.44
2018-07-08T02:44:47.883Z,84.44
2018-07-08T02:45:47.812Z,85.68
2018-07-08T02:46:47.744Z,85.25
2018-07-08T02:47:47.670Z,85.78
2018-07-08T02:48:47.597Z,85.21
2018-07-08T02:49:47.528Z,86.07
2018-07-08T02:50:47.454Z,86.25
2018-07-08T02:51:47.383Z,85.58
2018-07-08T02:52:47.317Z,85.68
2018-07-08T02:53:47.240Z,86.54
2018-07-08T02:54:47.179Z,86.74
2018-07-08T02:55:47.098Z,87.88
2018-07-08T02:56:47.025Z,87.88
2018-07-08T02:57:46.952Z,87.60
2018-07-08T02:58:46.881Z,88.27
2018-07-08T02:59:46.812Z,87.60
2018-07-08T03:00:46.741Z,88.65
2018-07-08T03:01:46.667Z,87.88
2018-07-08T03:02:46.604Z,88.08
2018-07-08T03:03:46.522Z,88.46
2018-07-08T03:04:46.450Z,88.65
2018-07-08T03:05:46.381Z,88.84
2018-07-08T03:06:46.307Z,88.17
2018-07-08T03:07:46.241Z,87.50
2018-07-08T03:08:46.165Z,88.27
2018-07-08T03:09:46.094Z,88.17
2018-07-08T03:10:46.019Z,88.56
2018-07-08T03:11:45.951Z,88.65
2018-07-08T03:12:45.881Z,88.75
2018-07-08T03:13:45.805Z,88.03
2018-07-08T03:14:45.735Z,87.46
2018-07-08T03:15:45.664Z,87.37
2018-07-08T03:16:45.591Z,87.17
2018-07-08T03:17:45.523Z,87.74
2018-07-08T03:18:45.448Z,88.23
2018-07-08T03:19:45.385Z,88.70
2018-07-08T03:20:45.301Z,88.42
2018-07-08T03:21:45.233Z,88.90
2018-07-08T03:22:45.160Z,88.32
2018-07-08T03:23:45.089Z,88.03
2018-07-08T03:24:45.017Z,87.46
2018-07-08T03:25:44.944Z,87.37
2018-07-08T03:26:44.878Z,87.55
2018-07-08T03:27:44.801Z,87.37
2018-07-08T03:28:44.746Z,86.69
2018-07-08T03:29:44.654Z,86.21
2018-07-08T03:30:44.596Z,86.12
2018-07-08T03:31:44.514Z,86.21
2018-07-08T03:32:44.441Z,85.64
2018-07-08T03:33:44.363Z,86.50
2018-07-08T03:34:44.296Z,86.46
2018-07-08T03:35:44.224Z,86.12
2018-07-08T03:36:44.154Z,86.02
2018-07-08T03:37:44.082Z,85.79
2018-07-08T03:38:44.008Z,86.21
2018-07-08T03:39:43.935Z,85.79
2018-07-08T03:40:43.865Z,86.55
2018-07-08T03:41:43.798Z,86.55
2018-07-08T03:42:43.712Z,87.23
2018-07-08T03:43:43.647Z,87.23
2018-07-08T03:44:43.575Z,87.32
2018-07-08T03:45:43.503Z,87.70
2018-07-08T03:46:43.426Z,87.90
2018-07-08T03:47:43.364Z,87.32
2018-07-08T03:48:43.286Z,87.23
2018-07-08T03:49:43.209Z,87.13
2018-07-08T03:50:43.143Z,87.70
2018-07-08T03:51:43.069Z,87.99
2018-07-08T03:52:43.003Z,87.90
2018-07-08T03:53:42.924Z,87.90
2018-07-08T03:54:42.860Z,87.90
2018-07-08T03:55:42.776Z,88.66
2018-07-08T03:56:42.710Z,88.37
2018-07-08T03:57:42.637Z,88.47
2018-07-08T03:58:42.564Z,88.37
2018-07-08T03:59:42.489Z,88.56
2018-07-08T04:00:42.430Z,88.18
2018-07-08T04:01:42.349Z,88.47
2018-07-08T04:02:42.278Z,88.85
2018-07-08T04:03:42.204Z,88.28
2018-07-08T04:04:42.135Z,89.33
2018-07-08T04:05:42.066Z,88.56
2018-07-08T04:06:41.987Z,89.33
2018-07-08T04:07:41.918Z,88.56
2018-07-08T04:08:41.839Z,88.76
2018-07-08T04:09:41.769Z,89.23
2018-07-08T04:10:41.701Z,88.66
2018-07-08T04:11:41.624Z,88.95
2018-07-08T04:12:41.551Z,89.04
2018-07-08T04:13:41.489Z,89.57
2018-07-08T04:14:41.409Z,88.95
2018-07-08T04:15:41.336Z,90.23
2018-07-08T04:16:41.271Z,88.51
2018-07-08T04:17:41.194Z,89.04
2018-07-08T04:18:41.121Z,89.04
2018-07-08T04:19:41.050Z,88.47
2018-07-08T04:20:40.985Z,88.37
2018-07-08T04:21:40.910Z,88.47
2018-07-08T04:22:40.831Z,89.52
2018-07-08T04:23:40.762Z,90.09
2018-07-08T04:24:40.687Z,90.77
2018-07-08T04:25:40.614Z,89.72
2018-07-08T04:26:40.542Z,90.77
2018-07-08T04:27:40.471Z,89.72
2018-07-08T04:28:40.395Z,89.52
2018-07-08T04:29:40.327Z,90.67
2018-07-08T04:30:40.252Z,90.77
2018-07-08T04:31:40.186Z,89.90
2018-07-08T04:32:40.108Z,90.96
2018-07-08T04:33:40.043Z,90.77
2018-07-08T04:34:39.960Z,89.72
2018-07-08T04:35:39.889Z,89.90
2018-07-08T04:36:39.819Z,89.52
2018-07-08T04:37:39.749Z,89.43
2018-07-08T04:38:39.679Z,88.95
2018-07-08T04:39:39.602Z,89.81
2018-07-08T04:40:39.535Z,90.09
2018-07-08T04:41:39.457Z,91.05
2018-07-08T04:42:39.388Z,90.39
2018-07-08T04:43:39.315Z,90.48
2018-07-08T04:44:39.254Z,90.96
2018-07-08T04:45:39.171Z,89.90
2018-07-08T04:46:39.098Z,90.86
2018-07-08T04:47:39.020Z,90.86
2018-07-08T04:48:38.953Z,89.90
2018-07-08T04:49:38.880Z,90.67
2018-07-08T04:50:38.806Z,90.09
2018-07-08T04:51:38.736Z,90.96
2018-07-08T04:52:38.663Z,90.09
2018-07-08T04:53:38.595Z,90.86
2018-07-08T04:54:38.516Z,90.09
2018-07-08T04:55:38.444Z,90.00
2018-07-08T04:56:38.383Z,89.43
2018-07-08T04:57:38.309Z,91.05
2018-07-08T04:58:38.227Z,89.72
2018-07-08T04:59:38.155Z,89.37
2018-07-08T05:00:38.087Z,89.23
2018-07-08T05:01:38.012Z,88.47
2018-07-08T05:02:37.938Z,88.47
2018-07-08T05:03:37.866Z,88.47
2018-07-08T05:04:37.796Z,89.33
2018-07-08T05:05:37.724Z,89.14
2018-07-08T05:06:37.720Z,89.23
2018-07-08T05:07:37.577Z,89.90
2018-07-08T05:08:37.504Z,89.76
2018-07-08T05:09:37.445Z,90.05
2018-07-08T05:10:37.368Z,89.95
2018-07-08T05:11:37.290Z,88.90
2018-07-08T05:12:37.224Z,90.14
2018-07-08T05:13:37.147Z,88.70
2018-07-08T05:14:37.073Z,89.18
2018-07-08T05:15:37.001Z,88.51
2018-07-08T05:16:36.930Z,88.51
2018-07-08T05:17:36.858Z,88.70
2018-07-08T05:18:36.786Z,88.61
2018-07-08T05:19:36.713Z,88.03
2018-07-08T05:20:36.643Z,88.13
2018-07-08T05:21:36.572Z,88.61
2018-07-08T05:22:36.495Z,88.70
2018-07-08T05:23:36.426Z,89.18
2018-07-08T05:24:36.352Z,88.42
2018-07-08T05:25:36.279Z,88.42
2018-07-08T05:26:36.211Z,88.42
2018-07-08T05:27:36.135Z,88.03
2018-07-08T05:28:36.070Z,88.61
2018-07-08T05:29:35.992Z,88.13
2018-07-08T05:30:35.923Z,87.55
2018-07-08T05:31:35.851Z,87.84
2018-07-08T05:32:35.777Z,87.70
2018-07-08T05:33:35.706Z,88.17
2018-07-08T05:34:35.630Z,87.88
2018-07-08T05:35:35.573Z,87.31
2018-07-08T05:36:35.488Z,87.50
2018-07-08T05:37:35.420Z,86.93
2018-07-08T05:38:35.352Z,86.45
2018-07-08T05:39:35.270Z,87.98
2018-07-08T05:40:35.200Z,87.79
2018-07-08T05:41:35.131Z,87.50
2018-07-08T05:42:35.056Z,87.02
2018-07-08T05:43:34.985Z,86.83
2018-07-08T05:44:34.915Z,87.79
2018-07-08T05:45:34.840Z,87.50
2018-07-08T05:46:34.775Z,86.35
2018-07-08T05:47:34.697Z,86.25
2018-07-08T05:48:34.654Z,86.45
2018-07-08T05:49:34.553Z,85.68
2018-07-08T05:50:34.502Z,85.30
2018-07-08T05:51:34.415Z,85.21
2018-07-08T05:52:34.345Z,85.25
2018-07-08T05:53:34.268Z,85.82
2018-07-08T05:54:34.201Z,85.05
2018-07-08T05:55:34.126Z,85.25
2018-07-08T05:56:34.051Z,84.77
2018-07-08T05:57:33.981Z,84.77
2018-07-08T05:58:33.908Z,84.09
2018-07-08T05:59:33.847Z,85.15
2018-07-08T06:00:33.766Z,84.86
2018-07-08T06:01:33.698Z,83.04
2018-07-08T06:02:33.623Z,83.33
2018-07-08T06:03:33.554Z,84.19
2018-07-08T06:04:33.503Z,84.67
2018-07-08T06:05:33.404Z,84.00
2018-07-08T06:06:33.360Z,84.86
2018-07-08T06:07:33.263Z,85.25
2018-07-08T06:08:33.190Z,84.95
2018-07-08T06:09:33.121Z,84.86
2018-07-08T06:10:33.050Z,83.61
2018-07-08T06:11:32.999Z,85.25
2018-07-08T06:12:32.907Z,84.95
2018-07-08T06:13:32.833Z,84.58
2018-07-08T06:14:32.762Z,85.19
2018-07-08T06:15:32.694Z,84.33
2018-07-08T06:16:32.619Z,83.42
2018-07-08T06:17:32.549Z,83.37
2018-07-08T06:18:32.480Z,82.21
2018-07-08T06:19:32.407Z,83.37
2018-07-08T06:20:32.338Z,84.61
2018-07-08T06:21:32.268Z,84.52
2018-07-08T06:22:32.195Z,83.37
2018-07-08T06:23:32.119Z,83.65
2018-07-08T06:24:32.048Z,82.21
2018-07-08T06:25:31.979Z,84.23
2018-07-08T06:26:31.907Z,82.21
2018-07-08T06:27:31.833Z,83.47
2018-07-08T06:28:31.764Z,82.51
2018-07-08T06:29:31.692Z,82.03
2018-07-08T06:30:31.625Z,81.93
2018-07-08T06:31:31.551Z,82.12
2018-07-08T06:32:31.480Z,83.56
2018-07-08T06:33:31.408Z,82.03
2018-07-08T06:34:31.339Z,82.12
2018-07-08T06:35:31.265Z,82.41
2018-07-08T06:36:31.240Z,80.68
2018-07-08T06:37:31.126Z,81.54
2018-07-08T06:38:31.056Z,81.64
2018-07-08T06:39:30.980Z,80.68
2018-07-08T06:40:30.910Z,81.54
2018-07-08T06:41:30.843Z,81.16
2018-07-08T06:42:30.767Z,80.58
2018-07-08T06:43:30.690Z,80.73
2018-07-08T06:44:30.621Z,80.15
2018-07-08T06:45:30.605Z,79.76
2018-07-08T06:46:30.482Z,79.96
2018-07-08T06:47:30.416Z,80.15
2018-07-08T06:48:30.339Z,79.09
2018-07-08T06:49:30.268Z,78.80
2018-07-08T06:50:30.197Z,78.70
2018-07-08T06:51:30.127Z,79.09
2018-07-08T06:52:30.053Z,79.38
2018-07-08T06:53:29.984Z,79.09
2018-07-08T06:54:29.912Z,80.15
2018-07-08T06:55:29.849Z,78.13
2018-07-08T06:56:29.770Z,77.46
2018-07-08T06:57:29.706Z,78.42
2018-07-08T06:58:29.629Z,78.13
2018-07-08T06:59:29.564Z,77.17
2018-07-08T07:00:29.492Z,76.59
2018-07-08T07:01:29.415Z,76.40
2018-07-08T07:02:29.347Z,76.31
2018-07-08T07:03:29.273Z,76.15
2018-07-08T07:04:29.204Z,75.87
2018-07-08T07:05:29.132Z,74.81
2018-07-08T07:06:29.063Z,74.90
2018-07-08T07:07:28.992Z,75.48
2018-07-08T07:08:28.920Z,73.85
2018-07-08T07:09:28.848Z,74.23
2018-07-08T07:10:28.779Z,75.77
2018-07-08T07:11:28.705Z,74.33
2018-07-08T07:12:28.635Z,75.00
2018-07-08T07:13:28.571Z,75.29
2018-07-08T07:14:28.500Z,75.10
2018-07-08T07:15:28.424Z,75.20
2018-07-08T07:16:28.389Z,74.81
2018-07-08T07:17:28.308Z,74.55
2018-07-08T07:18:28.212Z,72.34
2018-07-08T07:19:28.143Z,72.06
2018-07-08T07:20:28.071Z,71.48
2018-07-08T07:21:28.000Z,70.81
2018-07-08T07:22:27.931Z,71.19
2018-07-08T07:23:27.855Z,72.06
2018-07-08T07:24:27.790Z,72.54
2018-07-08T07:25:27.715Z,72.92
2018-07-08T07:26:27.648Z,73.50
2018-07-08T07:27:27.572Z,71.48
2018-07-08T07:28:27.516Z,72.34
2018-07-08T07:29:27.441Z,73.60
2018-07-08T07:30:27.365Z,74.55
2018-07-08T07:31:27.299Z,72.83
2018-07-08T07:32:27.224Z,71.39
2018-07-08T07:33:27.153Z,70.14
2018-07-08T07:34:27.082Z,70.04
2018-07-08T07:35:27.013Z,70.52
2018-07-08T07:36:26.945Z,71.67
2018-07-08T07:37:26.969Z,70.33
2018-07-08T07:38:26.826Z,70.62
2018-07-08T07:39:26.728Z,71.67
2018-07-08T07:40:26.670Z,72.25
2018-07-08T07:41:26.593Z,71.48
2018-07-08T07:42:26.522Z,70.62
2018-07-08T07:43:26.445Z,70.62
2018-07-08T07:44:26.384Z,71.71
2018-07-08T07:45:26.326Z,72.77
2018-07-08T07:46:26.244Z,70.52
2018-07-08T07:47:26.169Z,70.90
2018-07-08T07:48:26.105Z,71.29
2018-07-08T07:49:26.029Z,72.29
2018-07-08T07:50:25.957Z,70.90
2018-07-08T07:51:25.892Z,70.37
2018-07-08T07:52:25.817Z,70.37
2018-07-08T07:53:25.753Z,69.69
2018-07-08T07:54:25.677Z,68.92
2018-07-08T07:55:25.607Z,68.83
2018-07-08T07:56:25.541Z,68.15
2018-07-08T07:57:25.470Z,68.06
2018-07-08T07:58:25.397Z,68.73
2018-07-08T07:59:25.325Z,70.21
2018-07-08T08:00:25.259Z,68.96
2018-07-08T08:01:25.188Z,68.57
2018-07-08T08:02:25.116Z,68.29
2018-07-08T08:03:25.092Z,68.38
2018-07-08T08:04:24.982Z,66.14
2018-07-08T08:05:24.905Z,66.52
2018-07-08T08:06:24.835Z,68.63
2018-07-08T08:07:24.775Z,67.96
2018-07-08T08:08:24.771Z,66.61
2018-07-08T08:09:24.627Z,67.10
2018-07-08T08:10:24.555Z,67.58
2018-07-08T08:11:24.484Z,67.80
2018-07-08T08:12:24.419Z,67.22
2018-07-08T08:13:24.340Z,66.58
2018-07-08T08:14:24.286Z,65.91
2018-07-08T08:15:24.204Z,65.43
2018-07-08T08:16:24.138Z,65.14
2018-07-08T08:17:24.067Z,63.38
2018-07-08T08:18:23.996Z,64.05
2018-07-08T08:19:23.924Z,65.24
2018-07-08T08:20:23.859Z,63.60
2018-07-08T08:21:23.790Z,62.83
2018-07-08T08:22:23.717Z,60.91
2018-07-08T08:23:23.646Z,60.62
2018-07-08T08:24:23.581Z,61.39
2018-07-08T08:25:23.509Z,60.07
2018-07-08T08:26:23.510Z,60.94
2018-07-08T08:27:23.373Z,58.92
2018-07-08T08:28:23.302Z,59.97
2018-07-08T08:29:23.232Z,58.44
2018-07-08T08:30:23.163Z,58.60
2018-07-08T08:31:23.090Z,58.89
2018-07-08T08:32:23.024Z,57.76
2018-07-08T08:33:22.953Z,59.11
2018-07-08T08:34:22.881Z,56.41
2018-07-08T08:35:22.815Z,56.41
2018-07-08T08:36:22.785Z,56.51
2018-07-08T08:37:22.677Z,56.70
2018-07-08T08:38:22.603Z,56.99
2018-07-08T08:39:22.536Z,56.73
2018-07-08T08:40:22.460Z,54.90
2018-07-08T08:41:22.397Z,53.43
2018-07-08T08:42:22.324Z,54.78
2018-07-08T08:43:22.251Z,54.78
2018-07-08T08:44:22.186Z,52.75
2018-07-08T08:45:22.118Z,53.33
2018-07-08T08:46:22.047Z,53.36
2018-07-08T08:47:21.978Z,54.90
2018-07-08T08:48:21.908Z,53.07
2018-07-08T08:49:21.839Z,52.69
2018-07-08T08:50:21.769Z,52.87
2018-07-08T08:51:21.703Z,53.45
2018-07-08T08:52:21.672Z,52.97
2018-07-08T08:53:21.563Z,52.23
2018-07-08T08:54:21.497Z,52.61
2018-07-08T08:55:21.424Z,51.84
2018-07-08T08:56:21.370Z,51.26
2018-07-08T08:57:21.288Z,50.78
2018-07-08T08:58:21.248Z,50.57
2018-07-08T08:59:21.154Z,51.07
2018-07-08T09:00:21.080Z,50.76
2018-07-08T09:01:21.031Z,51.56
2018-07-08T09:02:20.954Z,51.17
2018-07-08T09:03:20.873Z,50.98
2018-07-08T09:04:20.806Z,50.11
2018-07-08T09:05:20.738Z,49.84
2018-07-08T09:06:20.666Z,48.47
2018-07-08T09:07:20.600Z,49.34
2018-07-08T09:08:20.535Z,50.11
2018-07-08T09:09:20.465Z,49.53
2018-07-08T09:10:20.409Z,50.30
2018-07-08T09:11:20.327Z,50.23
2018-07-08T09:12:20.264Z,47.92
2018-07-08T09:13:20.199Z,47.63
2018-07-08T09:14:20.123Z,48.97
2018-07-08T09:15:20.054Z,49.27
2018-07-08T09:16:19.982Z,49.87
2018-07-08T09:17:19.994Z,49.48
2018-07-08T09:18:19.853Z,50.13
2018-07-08T09:19:19.782Z,50.32
2018-07-08T09:20:19.721Z,50.23
2018-07-08T09:21:19.651Z,50.13
2018-07-08T09:22:19.586Z,50.35
2018-07-08T09:23:19.523Z,48.71
2018-07-08T09:24:19.456Z,48.16
2018-07-08T09:25:19.397Z,49.90
2018-07-08T09:26:19.332Z,49.60
2018-07-08T09:27:19.263Z,47.70
2018-07-08T09:28:19.205Z,46.44
2018-07-08T09:29:19.213Z,46.54
2018-07-08T09:30:19.085Z,46.56
2018-07-08T09:31:19.018Z,45.59
2018-07-08T09:32:18.966Z,45.23
2018-07-08T09:33:18.896Z,44.84
2018-07-08T09:34:18.842Z,44.87
2018-07-08T09:35:18.781Z,44.02
2018-07-08T09:36:18.725Z,42.97
2018-07-08T09:37:18.655Z,41.48
2018-07-08T09:38:18.602Z,42.10
2018-07-08T09:39:18.635Z,41.72
2018-07-08T09:40:18.482Z,40.48
2018-07-08T09:41:18.417Z,40.50
2018-07-08T09:42:18.363Z,40.31
2018-07-08T09:43:18.305Z,40.48
2018-07-08T09:44:18.246Z,40.52
2018-07-08T09:45:18.188Z,39.45
2018-07-08T09:46:18.127Z,38.50
2018-07-08T09:47:18.078Z,38.23
2018-07-08T09:48:18.016Z,37.10
2018-07-08T09:49:17.956Z,36.04
2018-07-08T09:50:17.905Z,34.19
2018-07-08T09:51:17.843Z,34.69
2018-07-08T09:52:17.790Z,35.27
2018-07-08T09:53:17.726Z,34.09
2018-07-08T09:54:17.673Z,35.57
2018-07-08T09:55:17.618Z,35.97
2018-07-08T09:56:17.559Z,35.11
2018-07-08T09:57:17.503Z,33.96
2018-07-08T09:58:17.449Z,32.62
2018-07-08T09:59:17.400Z,31.28
2018-07-08T10:00:17.338Z,30.31
2018-07-08T10:01:17.278Z,29.83
2018-07-08T10:02:17.220Z,30.34
2018-07-08T10:03:17.164Z,29.93
2018-07-08T10:04:17.107Z,30.05
2018-07-08T10:05:17.054Z,29.57
2018-07-08T10:06:17.000Z,28.30
2018-07-08T10:07:16.942Z,27.61
2018-07-08T10:08:16.888Z,28.29
2018-07-08T10:09:16.837Z,28.13
2018-07-08T10:10:16.777Z,27.26
2018-07-08T10:11:16.727Z,27.26
2018-07-08T10:12:16.670Z,26.68
2018-07-08T10:13:16.614Z,26.68
2018-07-08T10:14:16.557Z,27.37
2018-07-08T10:15:16.504Z,26.70
2018-07-08T10:16:16.463Z,26.42
2018-07-08T10:17:16.515Z,25.83
2018-07-08T10:18:16.342Z,25.54
2018-07-08T10:19:16.332Z,25.71
2018-07-08T10:20:16.232Z,26.38
2018-07-08T10:21:16.178Z,25.42
2018-07-08T10:22:16.125Z,24.84
2018-07-08T10:23:16.077Z,24.64
2018-07-08T10:24:16.017Z,23.96
2018-07-08T10:25:15.975Z,25.45
2018-07-08T10:26:15.910Z,24.66
2018-07-08T10:27:15.854Z,24.58
2018-07-08T10:28:15.804Z,24.19
2018-07-08T10:29:15.755Z,24.88
2018-07-08T10:30:15.707Z,24.40
2018-07-08T10:31:15.639Z,22.14
2018-07-08T10:32:15.592Z,22.81
2018-07-08T10:33:15.549Z,24.37
2018-07-08T10:34:15.491Z,23.99
2018-07-08T10:35:15.435Z,24.10
2018-07-08T10:36:15.381Z,24.02
2018-07-08T10:37:15.323Z,26.86
2018-07-08T10:38:15.324Z,25.40
2018-07-08T10:39:15.215Z,26.48
2018-07-08T10:40:15.164Z,24.32
2018-07-08T10:41:15.114Z,25.39
2018-07-08T10:42:15.065Z,25.75
2018-07-08T10:43:15.032Z,25.36
2018-07-08T10:44:14.955Z,25.07
2018-07-08T10:45:14.905Z,26.21
2018-07-08T10:46:14.843Z,26.41
2018-07-08T10:47:14.791Z,25.43
2018-07-08T10:48:14.736Z,25.45
2018-07-08T10:49:14.682Z,24.87
2018-07-08T10:50:14.631Z,26.19
2018-07-08T10:51:14.571Z,28.94
2018-07-08T10:52:14.520Z,30.57
2018-07-08T10:53:14.459Z,31.91
2018-07-08T10:54:14.403Z,32.57
2018-07-08T10:55:14.363Z,33.07
2018-07-08T10:56:14.291Z,32.89
2018-07-08T10:57:14.229Z,31.30
2018-07-08T10:58:14.172Z,29.57
2018-07-08T10:59:14.111Z,29.94
2018-07-08T11:00:14.055Z,29.64
2018-07-08T11:01:13.998Z,28.97
2018-07-08T11:02:13.939Z,29.85
2018-07-08T11:03:13.880Z,29.16
2018-07-08T11:04:13.819Z,29.85
2018-07-08T11:05:13.757Z,29.93
2018-07-08T11:06:13.701Z,29.83
2018-07-08T11:07:13.637Z,29.44
2018-07-08T11:08:13.580Z,29.93
2018-07-08T11:09:13.518Z,29.72
2018-07-08T11:10:13.463Z,30.59
2018-07-08T11:11:13.398Z,29.82
2018-07-08T11:12:13.345Z,29.74
2018-07-08T11:13:13.276Z,29.25
2018-07-08T11:14:13.227Z,28.18
2018-07-08T11:15:13.152Z,29.05
2018-07-08T11:16:13.093Z,29.52
2018-07-08T11:17:13.032Z,30.58
2018-07-08T11:18:12.972Z,32.29
2018-07-08T11:19:12.911Z,33.75
2018-07-08T11:20:12.847Z,32.23
2018-07-08T11:21:12.800Z,30.02
2018-07-08T11:22:12.732Z,29.86
2018-07-08T11:23:12.668Z,29.18
2018-07-08T11:24:12.605Z,28.99
2018-07-08T11:25:12.541Z,29.10
2018-07-08T11:26:12.482Z,28.09
2018-07-08T11:27:12.420Z,28.03
2018-07-08T11:28:12.359Z,27.26
2018-07-08T11:29:12.298Z,26.19
2018-07-08T11:30:12.240Z,26.59
2018-07-08T11:31:12.178Z,25.80
2018-07-08T11:32:12.129Z,27.34
2018-07-08T11:33:12.061Z,26.58
2018-07-08T11:34:12.003Z,26.20
2018-07-08T11:35:11.941Z,25.04
2018-07-08T11:36:11.885Z,25.04
2018-07-08T11:37:11.824Z,26.01
2018-07-08T11:38:11.764Z,25.32
2018-07-08T11:39:11.714Z,25.51
2018-07-08T11:40:11.646Z,25.59
2018-07-08T11:41:11.594Z,26.76
2018-07-08T11:42:11.526Z,26.65
2018-07-08T11:43:11.468Z,27.22
2018-07-08T11:44:11.410Z,27.22
2018-07-08T11:45:11.353Z,27.79
2018-07-08T11:46:11.292Z,28.96
2018-07-08T11:47:11.225Z,28.96
2018-07-08T11:48:11.163Z,28.96
2018-07-08T11:49:11.109Z,28.28
2018-07-08T11:50:11.046Z,28.08
2018-07-08T11:51:10.988Z,28.08
2018-07-08T11:52:10.927Z,28.18
2018-07-08T11:53:10.863Z,27.31
2018-07-08T11:54:10.804Z,27.31
2018-07-08T11:55:10.742Z,28.26
2018-07-08T11:56:10.677Z,28.45
2018-07-08T11:57:10.621Z,26.78
2018-07-08T11:58:10.560Z,27.56
2018-07-08T11:59:10.496Z,27.17
2018-07-08T12:00:10.431Z,28.15
2018-07-08T12:01:10.370Z,28.15
2018-07-08T12:02:10.306Z,27.89
2018-07-08T12:03:10.243Z,26.62
2018-07-08T12:04:10.176Z,27.00
2018-07-08T12:05:10.175Z,27.97
2018-07-08T12:06:10.053Z,27.08
2018-07-08T12:07:09.988Z,27.96
2018-07-08T12:08:09.931Z,28.61
2018-07-08T12:09:09.862Z,28.43
2018-07-08T12:10:09.798Z,28.81
2018-07-08T12:11:09.736Z,29.01
2018-07-08T12:12:09.675Z,28.93
2018-07-08T12:13:09.608Z,29.11
2018-07-08T12:14:09.543Z,29.88
2018-07-08T12:15:09.473Z,29.88
2018-07-08T12:16:09.411Z,28.32
2018-07-08T12:17:09.372Z,28.80
2018-07-08T12:18:09.285Z,28.80
2018-07-08T12:19:09.223Z,28.03
2018-07-08T12:20:09.164Z,28.70
2018-07-08T12:21:09.139Z,29.19
2018-07-08T12:22:09.029Z,30.07
2018-07-08T12:23:08.962Z,29.10
2018-07-08T12:24:08.899Z,28.13
2018-07-08T12:25:08.835Z,29.19
2018-07-08T12:26:08.773Z,28.03
2018-07-08T12:27:08.704Z,27.36
2018-07-08T12:28:08.645Z,27.84
2018-07-08T12:29:08.574Z,27.26
2018-07-08T12:30:08.512Z,26.97
2018-07-08T12:31:08.454Z,27.94
2018-07-08T12:32:08.380Z,27.45
2018-07-08T12:33:08.316Z,28.32
2018-07-08T12:34:08.252Z,27.64
2018-07-08T12:35:08.185Z,27.83
2018-07-08T12:36:08.114Z,29.10
2018-07-08T12:37:08.056Z,28.03
2018-07-08T12:38:07.987Z,27.73
2018-07-08T12:39:07.921Z,28.61
2018-07-08T12:40:07.865Z,29.58
2018-07-08T12:41:07.795Z,27.93
2018-07-08T12:42:07.730Z,26.86
2018-07-08T12:43:07.665Z,27.45
2018-07-08T12:44:07.650Z,26.38
2018-07-08T12:45:07.539Z,26.48
2018-07-08T12:46:07.463Z,26.57
2018-07-08T12:47:07.440Z,26.46
2018-07-08T12:48:07.334Z,27.33
2018-07-08T12:49:07.269Z,28.02
2018-07-08T12:50:07.200Z,28.30
2018-07-08T12:51:07.139Z,27.24
2018-07-08T12:52:07.069Z,27.83